sensor_id;sensor_type;location;lat;lon;timestamp;temperature;humidity
16974;DHT22;8603;46.944;7.412;2022-12-13T00:01:49;-4.50;99.90
16974;DHT22;8603;46.944;7.412;2022-12-13T00:04:17;-4.50;99.90
16974;DHT22;8603;46.944;7.412;2022-12-13T00:06:43;-4.40;99.90
16974;DHT22;8603;46.944;7.412;2022-12-13T00:09:12;-4.40;99.90
16974;DHT22;8603;46.944;7.412;2022-12-13T00:11:38;-4.40;99.90
16974;DHT22;8603;46.944;7.412;2022-12-13T00:14:03;-4.30;99.90
16974;DHT22;8603;46.944;7.412;2022-12-13T00:16:29;-4.30;99.90
16974;DHT22;8603;46.944;7.412;2022-12-13T00:18:57;-4.30;99.90
16974;DHT22;8603;46.944;7.412;2022-12-13T00:21:25;-4.20;99.90
16974;DHT22;8603;46.944;7.412;2022-12-13T00:23:52;-4.20;99.90
16974;DHT22;8603;46.944;7.412;2022-12-13T00:26:20;-4.20;99.90
16974;DHT22;8603;46.944;7.412;2022-12-13T00:28:46;-4.20;99.90
16974;DHT22;8603;46.944;7.412;2022-12-13T00:31:14;-4.10;99.90
16974;DHT22;8603;46.944;7.412;2022-12-13T00:33:40;-4.10;99.90
16974;DHT22;8603;46.944;7.412;2022-12-13T00:36:06;-4.10;99.90
16974;DHT22;8603;46.944;7.412;2022-12-13T00:38:34;-4.20;99.90
16974;DHT22;8603;46.944;7.412;2022-12-13T00:41:09;-4.20;99.90
16974;DHT22;8603;46.944;7.412;2022-12-13T00:43:34;-4.20;99.90
16974;DHT22;8603;46.944;7.412;2022-12-13T00:46:00;-4.20;99.90
16974;DHT22;8603;46.944;7.412;2022-12-13T00:48:25;-4.20;99.90
16974;DHT22;8603;46.944;7.412;2022-12-13T00:50:51;-4.20;99.90
16974;DHT22;8603;46.944;7.412;2022-12-13T00:53:17;-4.30;99.90
16974;DHT22;8603;46.944;7.412;2022-12-13T00:55:42;-4.30;99.90
16974;DHT22;8603;46.944;7.412;2022-12-13T00:58:08;-4.30;99.90
16974;DHT22;8603;46.944;7.412;2022-12-13T01:00:33;-4.40;99.90
16974;DHT22;8603;46.944;7.412;2022-12-13T01:02:59;-4.40;99.90
16974;DHT22;8603;46.944;7.412;2022-12-13T01:05:44;-4.40;99.90
16974;DHT22;8603;46.944;7.412;2022-12-13T01:08:10;-4.40;99.90
16974;DHT22;8603;46.944;7.412;2022-12-13T01:10:35;-4.50;99.90
16974;DHT22;8603;46.944;7.412;2022-12-13T01:13:01;-4.50;99.90
16974;DHT22;8603;46.944;7.412;2022-12-13T01:15:27;-4.60;99.90
16974;DHT22;8603;46.944;7.412;2022-12-13T01:17:52;-4.60;99.90
16974;DHT22;8603;46.944;7.412;2022-12-13T01:20:18;-4.70;99.90
16974;DHT22;8603;46.944;7.412;2022-12-13T01:22:44;-4.70;99.90
16974;DHT22;8603;46.944;7.412;2022-12-13T01:25:09;-4.80;99.90
16974;DHT22;8603;46.944;7.412;2022-12-13T01:27:35;-4.80;99.90
16974;DHT22;8603;46.944;7.412;2022-12-13T01:30:00;-4.90;99.90
16974;DHT22;8603;46.944;7.412;2022-12-13T01:32:26;-4.90;99.90
16974;DHT22;8603;46.944;7.412;2022-12-13T01:34:51;-4.90;99.90
16974;DHT22;8603;46.944;7.412;2022-12-13T01:37:17;-4.90;99.90
16974;DHT22;8603;46.944;7.412;2022-12-13T01:39:44;-4.90;99.90
16974;DHT22;8603;46.944;7.412;2022-12-13T01:42:13;-4.90;99.90
16974;DHT22;8603;46.944;7.412;2022-12-13T01:49:59;-4.90;99.90
16974;DHT22;8603;46.944;7.412;2022-12-13T01:52:28;-4.90;99.90
16974;DHT22;8603;46.944;7.412;2022-12-13T01:54:56;-4.90;99.90
16974;DHT22;8603;46.944;7.412;2022-12-13T01:57:24;-4.90;99.90
16974;DHT22;8603;46.944;7.412;2022-12-13T01:59:51;-4.90;99.90
16974;DHT22;8603;46.944;7.412;2022-12-13T02:02:19;-4.90;99.90
16974;DHT22;8603;46.944;7.412;2022-12-13T02:07:24;-4.80;99.90
16974;DHT22;8603;46.944;7.412;2022-12-13T02:09:55;-4.80;99.90
16974;DHT22;8603;46.944;7.412;2022-12-13T02:12:27;-4.80;99.90
16974;DHT22;8603;46.944;7.412;2022-12-13T02:14:53;-4.70;99.90
16974;DHT22;8603;46.944;7.412;2022-12-13T02:28:12;-4.60;99.90
16974;DHT22;8603;46.944;7.412;2022-12-13T02:30:46;-4.60;99.90
16974;DHT22;8603;46.944;7.412;2022-12-13T02:33:35;-4.60;99.90
16974;DHT22;8603;46.944;7.412;2022-12-13T02:36:07;-4.50;99.90
16974;DHT22;8603;46.944;7.412;2022-12-13T02:41:24;-4.50;99.90
16974;DHT22;8603;46.944;7.412;2022-12-13T02:43:58;-4.50;99.90
16974;DHT22;8603;46.944;7.412;2022-12-13T02:46:28;-4.40;99.90
16974;DHT22;8603;46.944;7.412;2022-12-13T02:48:55;-4.40;99.90
16974;DHT22;8603;46.944;7.412;2022-12-13T02:51:22;-4.40;99.90
16974;DHT22;8603;46.944;7.412;2022-12-13T02:53:49;-4.40;99.90
16974;DHT22;8603;46.944;7.412;2022-12-13T02:56:15;-4.40;99.90
16974;DHT22;8603;46.944;7.412;2022-12-13T02:58:49;-4.40;99.90
16974;DHT22;8603;46.944;7.412;2022-12-13T03:04:20;-4.40;99.90
16974;DHT22;8603;46.944;7.412;2022-12-13T03:15:17;-4.40;99.90
16974;DHT22;8603;46.944;7.412;2022-12-13T03:17:53;-4.40;99.90
16974;DHT22;8603;46.944;7.412;2022-12-13T03:20:23;-4.40;99.90
16974;DHT22;8603;46.944;7.412;2022-12-13T03:22:50;-4.40;99.90
16974;DHT22;8603;46.944;7.412;2022-12-13T03:25:16;-4.40;99.90
16974;DHT22;8603;46.944;7.412;2022-12-13T03:27:42;-4.40;99.90
16974;DHT22;8603;46.944;7.412;2022-12-13T03:30:08;-4.40;99.90
16974;DHT22;8603;46.944;7.412;2022-12-13T03:32:33;-4.40;99.90
16974;DHT22;8603;46.944;7.412;2022-12-13T03:34:59;-4.40;99.90
16974;DHT22;8603;46.944;7.412;2022-12-13T03:37:24;-4.30;99.90
16974;DHT22;8603;46.944;7.412;2022-12-13T03:39:50;-4.20;99.90
16974;DHT22;8603;46.944;7.412;2022-12-13T03:42:16;-4.20;99.90
16974;DHT22;8603;46.944;7.412;2022-12-13T03:44:42;-4.20;99.90
16974;DHT22;8603;46.944;7.412;2022-12-13T03:47:08;-4.30;99.90
16974;DHT22;8603;46.944;7.412;2022-12-13T03:49:33;-4.20;99.90
16974;DHT22;8603;46.944;7.412;2022-12-13T03:51:59;-4.30;99.90
16974;DHT22;8603;46.944;7.412;2022-12-13T03:54:24;-4.30;99.90
16974;DHT22;8603;46.944;7.412;2022-12-13T03:56:50;-4.30;99.90
16974;DHT22;8603;46.944;7.412;2022-12-13T03:59:16;-4.30;99.90
16974;DHT22;8603;46.944;7.412;2022-12-13T04:01:41;-4.40;99.90
16974;DHT22;8603;46.944;7.412;2022-12-13T04:04:07;-4.40;99.90
16974;DHT22;8603;46.944;7.412;2022-12-13T04:06:32;-4.40;99.90
16974;DHT22;8603;46.944;7.412;2022-12-13T04:08:58;-4.40;99.90
16974;DHT22;8603;46.944;7.412;2022-12-13T04:11:23;-4.40;99.90
16974;DHT22;8603;46.944;7.412;2022-12-13T04:14:08;-4.30;99.90
16974;DHT22;8603;46.944;7.412;2022-12-13T04:16:33;-4.30;99.90
16974;DHT22;8603;46.944;7.412;2022-12-13T04:18:59;-4.30;99.90
16974;DHT22;8603;46.944;7.412;2022-12-13T04:21:24;-4.30;99.90
16974;DHT22;8603;46.944;7.412;2022-12-13T04:23:50;-4.40;99.90
16974;DHT22;8603;46.944;7.412;2022-12-13T04:26:15;-4.40;99.90
16974;DHT22;8603;46.944;7.412;2022-12-13T04:28:41;-4.40;99.90
16974;DHT22;8603;46.944;7.412;2022-12-13T04:31:07;-4.40;99.90
16974;DHT22;8603;46.944;7.412;2022-12-13T04:33:32;-4.40;99.90
16974;DHT22;8603;46.944;7.412;2022-12-13T04:35:58;-4.40;99.90
16974;DHT22;8603;46.944;7.412;2022-12-13T04:38:23;-4.40;99.90
16974;DHT22;8603;46.944;7.412;2022-12-13T04:40:49;-4.50;99.90
16974;DHT22;8603;46.944;7.412;2022-12-13T04:43:15;-4.50;99.90
16974;DHT22;8603;46.944;7.412;2022-12-13T04:45:40;-4.50;99.90
16974;DHT22;8603;46.944;7.412;2022-12-13T04:48:06;-4.50;99.90
16974;DHT22;8603;46.944;7.412;2022-12-13T04:50:32;-4.50;99.90
16974;DHT22;8603;46.944;7.412;2022-12-13T04:52:57;-4.50;99.90
16974;DHT22;8603;46.944;7.412;2022-12-13T04:55:23;-4.50;99.90
16974;DHT22;8603;46.944;7.412;2022-12-13T04:57:49;-4.50;99.90
16974;DHT22;8603;46.944;7.412;2022-12-13T05:00:15;-4.40;99.90
16974;DHT22;8603;46.944;7.412;2022-12-13T05:02:41;-4.50;99.90
16974;DHT22;8603;46.944;7.412;2022-12-13T05:05:08;-4.50;99.90
16974;DHT22;8603;46.944;7.412;2022-12-13T05:07:34;-4.40;99.90
16974;DHT22;8603;46.944;7.412;2022-12-13T05:10:00;-4.50;99.90
16974;DHT22;8603;46.944;7.412;2022-12-13T05:12:25;-4.40;99.90
16974;DHT22;8603;46.944;7.412;2022-12-13T05:14:52;-4.40;99.90
16974;DHT22;8603;46.944;7.412;2022-12-13T05:17:18;-4.40;99.90
16974;DHT22;8603;46.944;7.412;2022-12-13T05:19:44;-4.40;99.90
16974;DHT22;8603;46.944;7.412;2022-12-13T05:22:10;-4.40;99.90
16974;DHT22;8603;46.944;7.412;2022-12-13T05:24:40;-4.40;99.90
16974;DHT22;8603;46.944;7.412;2022-12-13T05:27:07;-4.50;99.90
16974;DHT22;8603;46.944;7.412;2022-12-13T05:29:32;-4.40;99.90
16974;DHT22;8603;46.944;7.412;2022-12-13T05:31:58;-4.40;99.90
16974;DHT22;8603;46.944;7.412;2022-12-13T05:34:24;-4.40;99.90
16974;DHT22;8603;46.944;7.412;2022-12-13T05:36:50;-4.50;99.90
16974;DHT22;8603;46.944;7.412;2022-12-13T05:39:15;-4.50;99.90
16974;DHT22;8603;46.944;7.412;2022-12-13T05:41:41;-4.50;99.90
16974;DHT22;8603;46.944;7.412;2022-12-13T05:44:06;-4.50;99.90
16974;DHT22;8603;46.944;7.412;2022-12-13T05:46:35;-4.40;99.90
16974;DHT22;8603;46.944;7.412;2022-12-13T05:49:00;-4.40;99.90
16974;DHT22;8603;46.944;7.412;2022-12-13T05:51:26;-4.40;99.90
16974;DHT22;8603;46.944;7.412;2022-12-13T05:53:52;-4.30;99.90
16974;DHT22;8603;46.944;7.412;2022-12-13T05:56:17;-4.30;99.90
16974;DHT22;8603;46.944;7.412;2022-12-13T05:58:43;-4.30;99.90
16974;DHT22;8603;46.944;7.412;2022-12-13T06:01:12;-4.40;99.90
16974;DHT22;8603;46.944;7.412;2022-12-13T06:03:38;-4.40;99.90
16974;DHT22;8603;46.944;7.412;2022-12-13T06:06:05;-4.40;99.90
16974;DHT22;8603;46.944;7.412;2022-12-13T06:08:31;-4.40;99.90
16974;DHT22;8603;46.944;7.412;2022-12-13T06:10:58;-4.40;99.90
16974;DHT22;8603;46.944;7.412;2022-12-13T06:13:24;-4.50;99.90
16974;DHT22;8603;46.944;7.412;2022-12-13T06:15:50;-4.50;99.90
16974;DHT22;8603;46.944;7.412;2022-12-13T06:18:16;-4.50;99.90
16974;DHT22;8603;46.944;7.412;2022-12-13T06:20:41;-4.40;99.90
16974;DHT22;8603;46.944;7.412;2022-12-13T06:23:07;-4.30;99.90
16974;DHT22;8603;46.944;7.412;2022-12-13T06:25:32;-4.30;99.90
16974;DHT22;8603;46.944;7.412;2022-12-13T06:27:58;-4.40;99.90
16974;DHT22;8603;46.944;7.412;2022-12-13T06:30:24;-4.40;99.90
16974;DHT22;8603;46.944;7.412;2022-12-13T06:32:50;-4.50;99.90
16974;DHT22;8603;46.944;7.412;2022-12-13T06:35:15;-4.40;99.90
16974;DHT22;8603;46.944;7.412;2022-12-13T06:37:41;-4.40;99.90
16974;DHT22;8603;46.944;7.412;2022-12-13T06:40:07;-4.40;99.90
16974;DHT22;8603;46.944;7.412;2022-12-13T06:42:33;-4.30;99.90
16974;DHT22;8603;46.944;7.412;2022-12-13T06:44:58;-4.40;99.90
16974;DHT22;8603;46.944;7.412;2022-12-13T06:47:25;-4.40;99.90
16974;DHT22;8603;46.944;7.412;2022-12-13T06:49:51;-4.40;99.90
16974;DHT22;8603;46.944;7.412;2022-12-13T06:52:16;-4.40;99.90
16974;DHT22;8603;46.944;7.412;2022-12-13T06:54:42;-4.40;99.90
16974;DHT22;8603;46.944;7.412;2022-12-13T06:57:09;-4.40;99.90
16974;DHT22;8603;46.944;7.412;2022-12-13T06:59:34;-4.40;99.90
16974;DHT22;8603;46.944;7.412;2022-12-13T07:02:00;-4.40;99.90
16974;DHT22;8603;46.944;7.412;2022-12-13T07:04:26;-4.40;99.90
16974;DHT22;8603;46.944;7.412;2022-12-13T07:06:51;-4.40;99.90
16974;DHT22;8603;46.944;7.412;2022-12-13T07:09:17;-4.40;99.90
16974;DHT22;8603;46.944;7.412;2022-12-13T07:11:43;-4.50;99.90
16974;DHT22;8603;46.944;7.412;2022-12-13T07:14:09;-4.40;99.90
16974;DHT22;8603;46.944;7.412;2022-12-13T07:16:34;-4.40;99.90
16974;DHT22;8603;46.944;7.412;2022-12-13T07:19:00;-4.40;99.90
16974;DHT22;8603;46.944;7.412;2022-12-13T07:21:27;-4.40;99.90
16974;DHT22;8603;46.944;7.412;2022-12-13T07:23:53;-4.40;99.90
16974;DHT22;8603;46.944;7.412;2022-12-13T07:26:19;-4.30;99.90
16974;DHT22;8603;46.944;7.412;2022-12-13T07:28:45;-4.30;99.90
16974;DHT22;8603;46.944;7.412;2022-12-13T07:31:11;-4.30;99.90
16974;DHT22;8603;46.944;7.412;2022-12-13T07:33:37;-4.30;99.90
16974;DHT22;8603;46.944;7.412;2022-12-13T07:36:11;-4.30;99.90
16974;DHT22;8603;46.944;7.412;2022-12-13T07:38:37;-4.30;99.90
16974;DHT22;8603;46.944;7.412;2022-12-13T07:41:03;-4.20;99.90
16974;DHT22;8603;46.944;7.412;2022-12-13T07:43:30;-4.20;99.90
16974;DHT22;8603;46.944;7.412;2022-12-13T07:46:01;-4.10;99.90
16974;DHT22;8603;46.944;7.412;2022-12-13T07:48:27;-4.10;99.90
16974;DHT22;8603;46.944;7.412;2022-12-13T07:50:54;-4.00;99.90
16974;DHT22;8603;46.944;7.412;2022-12-13T07:53:19;-3.90;99.90
16974;DHT22;8603;46.944;7.412;2022-12-13T07:55:45;-3.70;99.90
16974;DHT22;8603;46.944;7.412;2022-12-13T07:58:13;-3.60;99.90
16974;DHT22;8603;46.944;7.412;2022-12-13T08:00:42;-3.40;99.90
16974;DHT22;8603;46.944;7.412;2022-12-13T08:03:08;-3.40;99.90
16974;DHT22;8603;46.944;7.412;2022-12-13T08:05:35;-3.30;99.90
16974;DHT22;8603;46.944;7.412;2022-12-13T08:08:02;-3.30;99.90
16974;DHT22;8603;46.944;7.412;2022-12-13T08:10:27;-3.30;99.90
16974;DHT22;8603;46.944;7.412;2022-12-13T08:12:54;-3.40;99.90
16974;DHT22;8603;46.944;7.412;2022-12-13T08:15:20;-3.40;99.90
16974;DHT22;8603;46.944;7.412;2022-12-13T08:17:46;-3.40;99.90
16974;DHT22;8603;46.944;7.412;2022-12-13T08:20:12;-3.40;99.90
16974;DHT22;8603;46.944;7.412;2022-12-13T08:22:38;-3.40;99.90
16974;DHT22;8603;46.944;7.412;2022-12-13T08:25:04;-3.40;99.90
16974;DHT22;8603;46.944;7.412;2022-12-13T08:27:30;-3.30;99.90
16974;DHT22;8603;46.944;7.412;2022-12-13T08:29:56;-3.30;99.90
16974;DHT22;8603;46.944;7.412;2022-12-13T08:32:22;-3.20;99.90
16974;DHT22;8603;46.944;7.412;2022-12-13T08:34:48;-3.10;99.90
16974;DHT22;8603;46.944;7.412;2022-12-13T08:37:14;-3.10;99.90
16974;DHT22;8603;46.944;7.412;2022-12-13T08:39:40;-3.10;99.90
16974;DHT22;8603;46.944;7.412;2022-12-13T08:42:16;-3.10;99.90
16974;DHT22;8603;46.944;7.412;2022-12-13T08:44:43;-3.00;99.90
16974;DHT22;8603;46.944;7.412;2022-12-13T08:47:08;-3.00;99.90
16974;DHT22;8603;46.944;7.412;2022-12-13T08:49:34;-3.00;99.90
16974;DHT22;8603;46.944;7.412;2022-12-13T08:51:59;-3.10;99.90
16974;DHT22;8603;46.944;7.412;2022-12-13T08:54:25;-3.00;99.90
16974;DHT22;8603;46.944;7.412;2022-12-13T08:56:51;-3.00;99.90
16974;DHT22;8603;46.944;7.412;2022-12-13T08:59:16;-2.80;99.90
16974;DHT22;8603;46.944;7.412;2022-12-13T09:01:48;-2.70;99.90
16974;DHT22;8603;46.944;7.412;2022-12-13T09:04:14;-2.60;99.90
16974;DHT22;8603;46.944;7.412;2022-12-13T09:06:41;-2.60;99.90
16974;DHT22;8603;46.944;7.412;2022-12-13T09:09:07;-2.60;99.90
16974;DHT22;8603;46.944;7.412;2022-12-13T09:11:32;-2.60;99.90
16974;DHT22;8603;46.944;7.412;2022-12-13T09:13:58;-2.50;99.90
16974;DHT22;8603;46.944;7.412;2022-12-13T09:16:23;-2.30;99.90
16974;DHT22;8603;46.944;7.412;2022-12-13T09:18:53;-2.10;99.90
16974;DHT22;8603;46.944;7.412;2022-12-13T09:21:19;-1.90;99.90
16974;DHT22;8603;46.944;7.412;2022-12-13T09:23:45;-1.70;99.90
16974;DHT22;8603;46.944;7.412;2022-12-13T09:26:12;-1.60;99.90
16974;DHT22;8603;46.944;7.412;2022-12-13T09:28:38;-1.50;99.90
16974;DHT22;8603;46.944;7.412;2022-12-13T09:31:08;-1.40;99.90
16974;DHT22;8603;46.944;7.412;2022-12-13T09:33:35;-1.50;99.90
16974;DHT22;8603;46.944;7.412;2022-12-13T09:36:03;-1.50;99.90
16974;DHT22;8603;46.944;7.412;2022-12-13T09:38:30;-1.50;99.90
16974;DHT22;8603;46.944;7.412;2022-12-13T09:40:58;-1.50;99.90
16974;DHT22;8603;46.944;7.412;2022-12-13T09:43:29;-1.50;99.90
16974;DHT22;8603;46.944;7.412;2022-12-13T09:45:56;-1.60;99.90
16974;DHT22;8603;46.944;7.412;2022-12-13T09:48:22;-1.70;99.90
16974;DHT22;8603;46.944;7.412;2022-12-13T09:50:49;-1.70;99.90
16974;DHT22;8603;46.944;7.412;2022-12-13T09:53:17;-1.90;99.90
16974;DHT22;8603;46.944;7.412;2022-12-13T09:55:45;-2.00;99.90
16974;DHT22;8603;46.944;7.412;2022-12-13T09:58:16;-2.00;99.90
16974;DHT22;8603;46.944;7.412;2022-12-13T10:00:46;-2.10;99.90
16974;DHT22;8603;46.944;7.412;2022-12-13T10:03:14;-2.10;99.90
16974;DHT22;8603;46.944;7.412;2022-12-13T10:05:44;-2.10;99.90
16974;DHT22;8603;46.944;7.412;2022-12-13T10:08:15;-2.20;99.90
16974;DHT22;8603;46.944;7.412;2022-12-13T10:10:41;-2.20;99.90
16974;DHT22;8603;46.944;7.412;2022-12-13T10:13:24;-2.20;99.90
16974;DHT22;8603;46.944;7.412;2022-12-13T10:16:01;-2.20;99.90
16974;DHT22;8603;46.944;7.412;2022-12-13T10:18:37;-2.30;99.90
16974;DHT22;8603;46.944;7.412;2022-12-13T10:21:15;-2.30;99.90
16974;DHT22;8603;46.944;7.412;2022-12-13T10:23:41;-2.30;99.90
16974;DHT22;8603;46.944;7.412;2022-12-13T10:26:09;-2.40;99.90
16974;DHT22;8603;46.944;7.412;2022-12-13T10:28:36;-2.40;99.90
16974;DHT22;8603;46.944;7.412;2022-12-13T10:31:02;-2.30;99.90
16974;DHT22;8603;46.944;7.412;2022-12-13T10:33:36;-2.40;99.90
16974;DHT22;8603;46.944;7.412;2022-12-13T10:36:03;-2.30;99.90
16974;DHT22;8603;46.944;7.412;2022-12-13T10:38:30;-2.20;99.90
16974;DHT22;8603;46.944;7.412;2022-12-13T10:40:58;-2.20;99.90
16974;DHT22;8603;46.944;7.412;2022-12-13T10:43:25;-2.10;99.90
16974;DHT22;8603;46.944;7.412;2022-12-13T10:48:22;-1.90;99.90
16974;DHT22;8603;46.944;7.412;2022-12-13T10:51:16;-1.60;99.90
16974;DHT22;8603;46.944;7.412;2022-12-13T10:53:46;-1.40;99.90
16974;DHT22;8603;46.944;7.412;2022-12-13T10:56:15;-1.10;99.90
16974;DHT22;8603;46.944;7.412;2022-12-13T10:58:43;-1.00;99.90
16974;DHT22;8603;46.944;7.412;2022-12-13T11:01:21;-1.10;99.90
16974;DHT22;8603;46.944;7.412;2022-12-13T11:03:56;-1.10;99.90
16974;DHT22;8603;46.944;7.412;2022-12-13T11:06:25;-1.10;99.90
16974;DHT22;8603;46.944;7.412;2022-12-13T11:08:52;-1.00;99.90
16974;DHT22;8603;46.944;7.412;2022-12-13T11:11:28;-1.00;99.90
16974;DHT22;8603;46.944;7.412;2022-12-13T11:13:56;-1.00;99.90
16974;DHT22;8603;46.944;7.412;2022-12-13T11:16:39;-1.00;99.90
16974;DHT22;8603;46.944;7.412;2022-12-13T11:19:18;-1.00;99.90
16974;DHT22;8603;46.944;7.412;2022-12-13T11:21:49;-1.00;99.90
16974;DHT22;8603;46.944;7.412;2022-12-13T11:24:23;-1.00;99.90
16974;DHT22;8603;46.944;7.412;2022-12-13T11:26:56;-1.00;99.90
16974;DHT22;8603;46.944;7.412;2022-12-13T11:32:07;-1.00;99.90
16974;DHT22;8603;46.944;7.412;2022-12-13T11:42:32;-0.80;99.90
16974;DHT22;8603;46.944;7.412;2022-12-13T11:45:16;-0.80;99.90
16974;DHT22;8603;46.944;7.412;2022-12-13T12:04:18;-0.50;99.90
16974;DHT22;8603;46.944;7.412;2022-12-13T12:06:54;-0.40;99.90
16974;DHT22;8603;46.944;7.412;2022-12-13T12:09:24;-0.50;99.90
16974;DHT22;8603;46.944;7.412;2022-12-13T12:16:58;-1.00;99.90
16974;DHT22;8603;46.944;7.412;2022-12-13T12:19:26;-1.00;99.90
16974;DHT22;8603;46.944;7.412;2022-12-13T12:25:07;-1.20;99.90
16974;DHT22;8603;46.944;7.412;2022-12-13T12:30:30;-1.30;99.90
16974;DHT22;8603;46.944;7.412;2022-12-13T12:33:03;-1.60;99.90
16974;DHT22;8603;46.944;7.412;2022-12-13T12:38:39;-1.70;99.90
16974;DHT22;8603;46.944;7.412;2022-12-13T12:44:10;-1.60;99.90
16974;DHT22;8603;46.944;7.412;2022-12-13T12:55:40;-1.50;99.90
16974;DHT22;8603;46.944;7.412;2022-12-13T13:01:13;-1.50;99.90
16974;DHT22;8603;46.944;7.412;2022-12-13T13:03:47;-1.50;99.90
16974;DHT22;8603;46.944;7.412;2022-12-13T13:06:16;-1.50;99.90
16974;DHT22;8603;46.944;7.412;2022-12-13T13:09:11;-1.60;99.90
16974;DHT22;8603;46.944;7.412;2022-12-13T13:11:43;-1.70;99.90
16974;DHT22;8603;46.944;7.412;2022-12-13T13:14:25;-1.70;99.90
16974;DHT22;8603;46.944;7.412;2022-12-13T13:16:51;-1.80;99.90
16974;DHT22;8603;46.944;7.412;2022-12-13T13:21:52;-1.70;99.90
16974;DHT22;8603;46.944;7.412;2022-12-13T13:24:22;-1.70;99.90
16974;DHT22;8603;46.944;7.412;2022-12-13T13:26:54;-1.70;99.90
16974;DHT22;8603;46.944;7.412;2022-12-13T13:34:27;-1.80;99.90
16974;DHT22;8603;46.944;7.412;2022-12-13T13:36:54;-1.70;99.90
16974;DHT22;8603;46.944;7.412;2022-12-13T13:52:19;-1.50;99.90
16974;DHT22;8603;46.944;7.412;2022-12-13T14:06:30;-1.80;99.90
16974;DHT22;8603;46.944;7.412;2022-12-13T14:09:36;-1.80;99.90
16974;DHT22;8603;46.944;7.412;2022-12-13T14:30:01;-2.20;99.90
16974;DHT22;8603;46.944;7.412;2022-12-13T14:32:30;-2.20;99.90
16974;DHT22;8603;46.944;7.412;2022-12-13T14:35:00;-2.20;99.90
16974;DHT22;8603;46.944;7.412;2022-12-13T14:37:29;-2.20;99.90
16974;DHT22;8603;46.944;7.412;2022-12-13T14:39:55;-2.20;99.90
16974;DHT22;8603;46.944;7.412;2022-12-13T14:42:28;-2.20;99.90
16974;DHT22;8603;46.944;7.412;2022-12-13T14:45:11;-2.20;99.90
16974;DHT22;8603;46.944;7.412;2022-12-13T14:47:40;-2.20;99.90
16974;DHT22;8603;46.944;7.412;2022-12-13T14:50:06;-2.20;99.90
16974;DHT22;8603;46.944;7.412;2022-12-13T14:52:36;-2.20;99.90
16974;DHT22;8603;46.944;7.412;2022-12-13T14:55:04;-2.10;99.90
16974;DHT22;8603;46.944;7.412;2022-12-13T14:57:32;-2.20;99.90
16974;DHT22;8603;46.944;7.412;2022-12-13T15:00:00;-2.10;99.90
16974;DHT22;8603;46.944;7.412;2022-12-13T15:02:29;-2.10;99.90
16974;DHT22;8603;46.944;7.412;2022-12-13T15:05:04;-2.20;99.90
16974;DHT22;8603;46.944;7.412;2022-12-13T15:07:38;-2.10;99.90
16974;DHT22;8603;46.944;7.412;2022-12-13T15:10:21;-2.10;99.90
16974;DHT22;8603;46.944;7.412;2022-12-13T15:12:50;-2.10;99.90
16974;DHT22;8603;46.944;7.412;2022-12-13T15:15:28;-2.10;99.90
16974;DHT22;8603;46.944;7.412;2022-12-13T15:20:41;-2.20;99.90
16974;DHT22;8603;46.944;7.412;2022-12-13T15:25:42;-2.20;99.90
16974;DHT22;8603;46.944;7.412;2022-12-13T15:28:14;-2.20;99.90
16974;DHT22;8603;46.944;7.412;2022-12-13T15:30:40;-2.20;99.90
16974;DHT22;8603;46.944;7.412;2022-12-13T15:33:19;-2.20;99.90
16974;DHT22;8603;46.944;7.412;2022-12-13T15:38:36;-2.20;99.90
16974;DHT22;8603;46.944;7.412;2022-12-13T15:41:04;-2.20;99.90
16974;DHT22;8603;46.944;7.412;2022-12-13T15:43:51;-2.30;99.90
16974;DHT22;8603;46.944;7.412;2022-12-13T15:46:26;-2.30;99.90
16974;DHT22;8603;46.944;7.412;2022-12-13T15:48:53;-2.40;99.90
16974;DHT22;8603;46.944;7.412;2022-12-13T15:51:19;-2.40;99.90
16974;DHT22;8603;46.944;7.412;2022-12-13T15:56:58;-2.40;99.90
16974;DHT22;8603;46.944;7.412;2022-12-13T15:59:26;-2.50;99.90
16974;DHT22;8603;46.944;7.412;2022-12-13T16:01:52;-2.60;99.90
16974;DHT22;8603;46.944;7.412;2022-12-13T16:04:22;-2.50;99.90
16974;DHT22;8603;46.944;7.412;2022-12-13T16:06:49;-2.60;99.90
16974;DHT22;8603;46.944;7.412;2022-12-13T16:09:18;-2.60;99.90
16974;DHT22;8603;46.944;7.412;2022-12-13T16:11:48;-2.60;99.90
16974;DHT22;8603;46.944;7.412;2022-12-13T16:17:01;-2.70;99.90
16974;DHT22;8603;46.944;7.412;2022-12-13T16:19:27;-2.80;99.90
16974;DHT22;8603;46.944;7.412;2022-12-13T16:21:53;-2.80;99.90
16974;DHT22;8603;46.944;7.412;2022-12-13T16:24:18;-2.80;99.90
16974;DHT22;8603;46.944;7.412;2022-12-13T16:26:46;-2.70;99.90
16974;DHT22;8603;46.944;7.412;2022-12-13T16:29:14;-2.80;99.90
16974;DHT22;8603;46.944;7.412;2022-12-13T16:31:47;-2.80;99.90
16974;DHT22;8603;46.944;7.412;2022-12-13T16:34:14;-2.80;99.90
16974;DHT22;8603;46.944;7.412;2022-12-13T16:36:43;-2.80;99.90
16974;DHT22;8603;46.944;7.412;2022-12-13T16:39:10;-2.80;99.90
16974;DHT22;8603;46.944;7.412;2022-12-13T16:41:37;-2.80;99.90
16974;DHT22;8603;46.944;7.412;2022-12-13T16:44:06;-2.80;99.90
16974;DHT22;8603;46.944;7.412;2022-12-13T16:46:33;-2.80;99.90
16974;DHT22;8603;46.944;7.412;2022-12-13T16:49:00;-2.80;99.90
16974;DHT22;8603;46.944;7.412;2022-12-13T16:51:26;-2.80;99.90
16974;DHT22;8603;46.944;7.412;2022-12-13T16:53:52;-2.70;99.90
16974;DHT22;8603;46.944;7.412;2022-12-13T16:56:17;-2.80;99.90
16974;DHT22;8603;46.944;7.412;2022-12-13T16:58:49;-2.80;99.90
16974;DHT22;8603;46.944;7.412;2022-12-13T17:01:17;-2.80;99.90
16974;DHT22;8603;46.944;7.412;2022-12-13T17:03:44;-2.90;99.90
16974;DHT22;8603;46.944;7.412;2022-12-13T17:06:11;-2.90;99.90
16974;DHT22;8603;46.944;7.412;2022-12-13T17:08:37;-2.80;99.90
16974;DHT22;8603;46.944;7.412;2022-12-13T17:11:02;-2.80;99.90
16974;DHT22;8603;46.944;7.412;2022-12-13T17:13:28;-2.80;99.90
16974;DHT22;8603;46.944;7.412;2022-12-13T17:15:54;-2.80;99.90
16974;DHT22;8603;46.944;7.412;2022-12-13T17:18:20;-2.80;99.90
16974;DHT22;8603;46.944;7.412;2022-12-13T17:20:46;-2.80;99.90
16974;DHT22;8603;46.944;7.412;2022-12-13T17:23:12;-2.80;99.90
16974;DHT22;8603;46.944;7.412;2022-12-13T17:25:38;-2.80;99.90
16974;DHT22;8603;46.944;7.412;2022-12-13T17:28:07;-2.80;99.90
16974;DHT22;8603;46.944;7.412;2022-12-13T17:30:33;-2.70;99.90
16974;DHT22;8603;46.944;7.412;2022-12-13T17:33:04;-2.60;99.90
16974;DHT22;8603;46.944;7.412;2022-12-13T17:35:32;-2.60;99.90
16974;DHT22;8603;46.944;7.412;2022-12-13T17:37:58;-2.60;99.90
16974;DHT22;8603;46.944;7.412;2022-12-13T17:40:23;-2.60;99.90
16974;DHT22;8603;46.944;7.412;2022-12-13T17:42:49;-2.60;99.90
16974;DHT22;8603;46.944;7.412;2022-12-13T17:45:15;-2.70;99.90
16974;DHT22;8603;46.944;7.412;2022-12-13T17:47:44;-2.70;99.90
16974;DHT22;8603;46.944;7.412;2022-12-13T17:50:10;-2.60;99.90
16974;DHT22;8603;46.944;7.412;2022-12-13T17:52:37;-2.60;99.90
16974;DHT22;8603;46.944;7.412;2022-12-13T17:55:03;-2.60;99.90
16974;DHT22;8603;46.944;7.412;2022-12-13T17:57:30;-2.60;99.90
16974;DHT22;8603;46.944;7.412;2022-12-13T17:59:59;-2.60;99.90
16974;DHT22;8603;46.944;7.412;2022-12-13T18:02:25;-2.60;99.90
16974;DHT22;8603;46.944;7.412;2022-12-13T18:04:51;-2.60;99.90
16974;DHT22;8603;46.944;7.412;2022-12-13T18:07:17;-2.50;99.90
16974;DHT22;8603;46.944;7.412;2022-12-13T18:09:43;-2.50;99.90
16974;DHT22;8603;46.944;7.412;2022-12-13T18:12:08;-2.50;99.90
16974;DHT22;8603;46.944;7.412;2022-12-13T18:14:35;-2.60;99.90
16974;DHT22;8603;46.944;7.412;2022-12-13T18:17:01;-2.50;99.90
16974;DHT22;8603;46.944;7.412;2022-12-13T18:19:27;-2.50;99.90
16974;DHT22;8603;46.944;7.412;2022-12-13T18:21:57;-2.50;99.90
16974;DHT22;8603;46.944;7.412;2022-12-13T18:24:23;-2.60;99.90
16974;DHT22;8603;46.944;7.412;2022-12-13T18:26:48;-2.60;99.90